Time;durP1;ratioP1;P1;durP2;ratioP2;P2;SDS_P1;SDS_P2;PMS_P1;PMS_P2;Temp;Humidity;BMP_temperature;BMP_pressure;BME280_temperature;BME280_humidity;BME280_pressure;Samples;Min_cycle;Max_cycle;Signal;HPM_P1;HPM_P2
2022/08/07 04:01:28;;;;;;;2.67;1.27;;;6.90;96.30;;;;;;5473631;23;21117;-79
2022/08/07 04:03:54;;;;;;;2.80;1.20;;;7.00;96.30;;;;;;4963207;28;20441;-78
2022/08/07 04:06:19;;;;;;;2.40;1.20;;;7.40;96.30;;;;;;4971026;28;20509;-79
2022/08/07 04:08:46;;;;;;;1.50;1.07;;;8.00;96.30;;;;;;4974349;28;20205;-79
2022/08/07 04:11:11;;;;;;;2.03;1.10;;;8.40;96.30;;;;;;4956143;28;20241;-80
2022/08/07 04:13:38;;;;;;;1.87;1.10;;;9.00;96.30;;;;;;4957575;28;20786;-77
2022/08/07 04:16:04;;;;;;;1.30;0.80;;;9.70;96.30;;;;;;4955998;28;20190;-77
2022/08/07 04:18:29;;;;;;;2.30;1.00;;;9.90;96.30;;;;;;4964394;28;20426;-77
2022/08/07 04:20:55;;;;;;;1.97;0.90;;;10.30;96.30;;;;;;4975036;28;20638;-78
2022/08/07 04:23:21;;;;;;;2.13;0.80;;;10.80;96.30;;;;;;4974859;28;20213;-77
2022/08/07 04:25:48;;;;;;;1.40;0.90;;;11.20;96.30;;;;;;4973505;28;20178;-78
2022/08/07 04:28:13;;;;;;;1.20;1.10;;;11.60;96.30;;;;;;4973941;28;20417;-78
2022/08/07 04:30:39;;;;;;;1.20;0.90;;;11.80;96.30;;;;;;4974586;28;20445;-79
2022/08/07 04:33:07;;;;;;;3.27;1.10;;;12.10;96.30;;;;;;4974637;28;20181;-77
2022/08/07 04:35:33;;;;;;;1.97;1.00;;;12.60;96.30;;;;;;4974413;28;20309;-78
2022/08/07 04:37:58;;;;;;;1.27;0.97;;;13.10;96.30;;;;;;4973998;28;20414;-78
2022/08/07 04:40:24;;;;;;;1.20;0.73;;;13.80;96.30;;;;;;4968010;28;20818;-77
2022/08/07 04:42:50;;;;;;;2.40;1.20;;;14.60;96.30;;;;;;4954100;29;20182;-78
2022/08/07 04:45:16;;;;;;;1.20;0.93;;;14.90;96.30;;;;;;4955089;29;20178;-78
2022/08/07 04:48:06;;;;;;;1.40;0.90;;;15.50;96.30;;;;;;4954940;28;20222;-78
2022/08/07 04:50:55;;;;;;;2.23;1.10;;;16.00;96.30;;;;;;4954896;28;20442;-77
2022/08/07 04:53:32;;;;;;;1.90;1.00;;;15.90;96.00;;;;;;4955018;28;20910;-77
2022/08/07 04:56:04;;;;;;;1.00;0.90;;;16.10;95.80;;;;;;4954924;28;20758;-77
2022/08/07 04:58:56;;;;;;;1.63;1.20;;;16.10;96.00;;;;;;4953074;29;20427;-77
2022/08/07 05:01:39;;;;;;;1.20;0.90;;;16.30;94.80;;;;;;4947869;29;20470;-79
2022/08/07 05:04:57;;;;;;;2.00;0.80;;;16.40;94.40;;;;;;4954936;28;20433;-77
2022/08/07 05:07:39;;;;;;;2.03;1.17;;;15.90;96.30;;;;;;4895668;29;20788;-77
2022/08/07 05:10:18;;;;;;;1.83;1.10;;;16.40;95.50;;;;;;4906563;29;20967;-78
2022/08/07 05:12:51;;;;;;;1.30;0.80;;;16.30;94.90;;;;;;4959436;28;20913;-78
2022/08/07 05:15:23;;;;;;;1.10;0.90;;;15.80;95.40;;;;;;4972513;28;20444;-78
2022/08/07 05:18:01;;;;;;;1.20;0.90;;;14.30;96.30;;;;;;4973475;28;20409;-80
2022/08/07 05:20:33;;;;;;;2.17;1.17;;;13.30;96.30;;;;;;4973749;28;20457;-77
2022/08/07 05:23:05;;;;;;;1.73;1.00;;;12.60;96.30;;;;;;4972599;28;20418;-78
2022/08/07 05:25:32;;;;;;;2.13;0.90;;;12.30;96.30;;;;;;4973919;28;20768;-77
2022/08/07 05:27:59;;;;;;;1.60;0.90;;;11.90;96.30;;;;;;4973140;28;20432;-77
2022/08/07 05:30:25;;;;;;;0.90;0.70;;;11.80;96.30;;;;;;4973660;28;20866;-77
2022/08/07 05:32:53;;;;;;;0.90;0.70;;;11.50;96.30;;;;;;4973640;28;20420;-77
2022/08/07 05:35:19;;;;;;;1.20;0.80;;;11.40;96.30;;;;;;4973487;28;20406;-77
2022/08/07 05:37:45;;;;;;;5.17;1.10;;;11.50;96.30;;;;;;4973535;28;20504;-81
2022/08/07 05:40:11;;;;;;;1.00;0.80;;;11.90;96.30;;;;;;4967923;28;20465;-77
2022/08/07 05:42:37;;;;;;;2.70;0.83;;;13.40;96.30;;;;;;4954213;28;20179;-77
2022/08/07 05:45:04;;;;;;;1.40;0.80;;;14.80;96.30;;;;;;4954237;29;20414;-77
2022/08/07 05:47:31;;;;;;;2.60;0.80;;;16.40;96.30;;;;;;4954078;28;20175;-78
2022/08/07 05:49:57;;;;;;;2.33;1.00;;;18.00;94.70;;;;;;4953465;28;20791;-78
2022/08/07 05:52:23;;;;;;;2.03;1.00;;;19.70;89.20;;;;;;4952631;29;20941;-78
2022/08/07 05:54:48;;;;;;;1.37;1.10;;;20.50;85.50;;;;;;4952734;29;20426;-78
2022/08/07 05:57:15;;;;;;;2.33;1.00;;;20.60;83.90;;;;;;4954064;29;20187;-78
2022/08/07 05:59:43;;;;;;;1.70;0.90;;;21.30;80.30;;;;;;4953888;28;20183;-78
2022/08/07 06:02:14;;;;;;;1.20;0.90;;;21.90;80.40;;;;;;4954199;29;20513;-78
2022/08/07 06:04:47;;;;;;;1.93;0.70;;;21.90;79.80;;;;;;4954867;28;20405;-78
2022/08/07 06:07:13;;;;;;;1.40;0.87;;;22.50;78.20;;;;;;4953915;28;20452;-79
2022/08/07 06:09:40;;;;;;;1.67;0.90;;;22.90;77.10;;;;;;4961962;28;20431;-80
2022/08/07 06:12:06;;;;;;;1.83;0.90;;;22.70;77.80;;;;;;4973156;28;20241;-79
2022/08/07 06:14:32;;;;;;;2.20;1.00;;;23.10;76.40;;;;;;4973156;28;20463;-79
2022/08/07 06:16:58;;;;;;;3.13;0.90;;;23.50;75.90;;;;;;4973431;28;20761;-79
2022/08/07 06:19:23;;;;;;;1.20;0.80;;;23.60;75.00;;;;;;4972596;28;20417;-79
2022/08/07 06:21:50;;;;;;;1.20;0.90;;;24.00;75.40;;;;;;4973011;28;20213;-79
2022/08/07 06:24:15;;;;;;;1.80;0.77;;;24.50;73.30;;;;;;4973057;28;20178;-79
2022/08/07 06:26:41;;;;;;;1.93;0.80;;;24.20;75.80;;;;;;4973054;28;20411;-80
2022/08/07 06:29:07;;;;;;;1.10;0.90;;;25.30;73.40;;;;;;4972604;28;20646;-78
2022/08/07 06:31:33;;;;;;;1.47;0.80;;;25.60;71.40;;;;;;4972990;28;20198;-79
2022/08/07 06:33:59;;;;;;;1.00;0.73;;;26.30;69.70;;;;;;4971615;28;20419;-78
2022/08/07 06:36:25;;;;;;;1.83;0.80;;;26.40;69.50;;;;;;4972963;28;20421;-78
2022/08/07 06:38:52;;;;;;;1.33;0.70;;;26.20;67.70;;;;;;4972509;28;20181;-78
2022/08/07 06:41:24;;;;;;;1.20;0.80;;;25.70;69.40;;;;;;4959573;28;20522;-79
2022/08/07 06:43:50;;;;;;;1.20;0.70;;;25.30;71.20;;;;;;4953620;28;20913;-78
2022/08/07 06:46:16;;;;;;;1.30;0.80;;;26.20;68.20;;;;;;4953635;28;20526;-79
2022/08/07 06:48:42;;;;;;;1.17;0.80;;;26.80;67.80;;;;;;4951740;29;20442;-79
2022/08/07 06:51:13;;;;;;;5.70;1.00;;;27.10;67.80;;;;;;4953951;28;20722;-78
2022/08/07 06:53:40;;;;;;;1.67;0.80;;;27.20;67.30;;;;;;4957265;28;20362;-79
2022/08/07 06:56:07;;;;;;;1.20;0.80;;;28.00;66.00;;;;;;4956988;28;20409;-78
2022/08/07 06:58:34;;;;;;;2.93;0.70;;;28.50;64.80;;;;;;4956545;28;20421;-79
2022/08/07 07:01:04;;;;;;;2.30;0.90;;;29.10;62.80;;;;;;4956785;28;20565;-79
2022/08/07 07:03:30;;;;;;;2.40;1.10;;;29.30;61.70;;;;;;4957172;28;20835;-78
2022/08/07 07:05:56;;;;;;;1.17;0.70;;;29.40;62.10;;;;;;4956974;28;21070;-79
2022/08/07 07:08:26;;;;;;;1.63;0.90;;;29.60;60.50;;;;;;4956332;29;20179;-78
2022/08/07 07:10:52;;;;;;;2.27;1.03;;;29.40;61.10;;;;;;4973783;28;20201;-79
2022/08/07 07:13:36;;;;;;;1.97;0.80;;;29.10;62.40;;;;;;4976142;28;20177;-79
2022/08/07 07:16:13;;;;;;;4.90;0.90;;;29.60;60.50;;;;;;4976126;28;20162;-78
2022/08/07 07:18:47;;;;;;;2.43;0.90;;;29.50;60.70;;;;;;4975511;28;20397;-79
2022/08/07 07:21:26;;;;;;;1.40;0.80;;;29.80;59.70;;;;;;4975827;28;20923;-79
2022/08/07 07:23:52;;;;;;;1.00;0.80;;;28.60;61.30;;;;;;4975959;28;20241;-78
2022/08/07 07:26:20;;;;;;;4.80;1.17;;;28.40;63.00;;;;;;4975762;28;20208;-79
2022/08/07 07:28:58;;;;;;;2.13;0.90;;;28.20;61.90;;;;;;4974014;28;20543;-79
2022/08/07 07:31:32;;;;;;;1.33;0.80;;;27.40;63.60;;;;;;4975738;28;20194;-79
2022/08/07 07:34:03;;;;;;;1.80;0.90;;;26.50;63.90;;;;;;4975852;28;20400;-78
2022/08/07 07:36:31;;;;;;;2.00;0.80;;;27.70;65.40;;;;;;4975784;28;20401;-79
2022/08/07 07:38:58;;;;;;;3.07;0.90;;;28.30;62.10;;;;;;4975121;28;20414;-78
2022/08/07 07:41:26;;;;;;;1.77;0.80;;;28.30;61.50;;;;;;4961482;28;20529;-78
2022/08/07 07:43:53;;;;;;;2.67;0.80;;;27.80;62.50;;;;;;4956413;28;20457;-78
2022/08/07 07:46:22;;;;;;;1.30;0.90;;;29.00;60.80;;;;;;4956285;28;20410;-78
2022/08/07 07:48:50;;;;;;;3.10;0.70;;;29.70;58.80;;;;;;4955767;28;20948;-78
2022/08/07 07:51:17;;;;;;;3.80;0.90;;;29.30;61.10;;;;;;4956473;28;20441;-80
2022/08/07 07:53:44;;;;;;;2.30;0.90;;;27.80;60.50;;;;;;4955004;28;20424;-78
2022/08/07 07:56:12;;;;;;;1.57;0.90;;;27.80;62.30;;;;;;4955181;28;20418;-78
2022/08/07 07:58:39;;;;;;;3.10;0.80;;;28.10;62.10;;;;;;4956100;28;20419;-79
2022/08/07 08:01:06;;;;;;;1.33;0.67;;;28.80;60.50;;;;;;4956338;28;20477;-79
2022/08/07 08:03:35;;;;;;;4.90;0.70;;;29.60;57.50;;;;;;4954935;28;20602;-78
2022/08/07 08:06:01;;;;;;;3.27;0.90;;;28.30;59.80;;;;;;4955851;28;20418;-79
2022/08/07 08:08:29;;;;;;;1.93;0.80;;;27.00;61.70;;;;;;4955208;28;20418;-79
2022/08/07 08:10:56;;;;;;;4.50;1.00;;;27.40;60.90;;;;;;4974435;28;20552;-78
2022/08/07 08:13:24;;;;;;;2.13;0.80;;;28.20;60.30;;;;;;4973732;28;20421;-78
2022/08/07 08:15:51;;;;;;;4.10;0.97;;;28.10;61.00;;;;;;4974971;28;20421;-78
2022/08/07 08:18:17;;;;;;;0.90;0.70;;;27.90;61.40;;;;;;4974253;28;20913;-78
2022/08/07 08:20:45;;;;;;;1.50;0.80;;;27.50;60.70;;;;;;4974760;28;20469;-78
2022/08/07 08:28:38;;;;;;;5.23;0.90;;;28.00;60.60;;;;;;4974263;28;20805;-78
2022/08/07 08:31:06;;;;;;;1.27;0.70;;;27.40;63.00;;;;;;4974645;28;20491;-78
2022/08/07 08:33:33;;;;;;;2.23;0.60;;;27.10;63.60;;;;;;4974508;28;20453;-78
2022/08/07 08:36:00;;;;;;;1.43;0.70;;;26.40;62.20;;;;;;4973271;28;20520;-78
2022/08/07 08:38:31;;;;;;;3.87;1.00;;;26.60;61.90;;;;;;4973891;28;20500;-80
2022/08/07 08:41:06;;;;;;;1.63;0.77;;;27.20;61.30;;;;;;4962666;28;20985;-78
2022/08/07 08:43:45;;;;;;;1.43;0.70;;;27.90;60.40;;;;;;4955193;28;20762;-78
2022/08/07 08:46:17;;;;;;;2.03;0.80;;;29.30;59.20;;;;;;4953870;29;20409;-78
2022/08/07 08:49:03;;;;;;;1.87;1.07;;;29.40;58.10;;;;;;4954364;28;20403;-78
2022/08/07 08:51:45;;;;;;;1.97;0.73;;;29.10;57.10;;;;;;4954992;28;20481;-78
2022/08/07 08:54:23;;;;;;;2.50;0.80;;;29.60;57.50;;;;;;4954938;28;20449;-78
2022/08/07 08:56:51;;;;;;;1.27;0.60;;;30.20;59.50;;;;;;4954979;28;20402;-78
2022/08/07 08:59:39;;;;;;;0.97;0.70;;;29.10;55.80;;;;;;4954296;28;20488;-79
2022/08/07 09:02:39;;;;;;;1.47;0.60;;;29.60;58.10;;;;;;4954444;28;20470;-78
2022/08/07 09:05:22;;;;;;;4.63;0.90;;;28.90;57.90;;;;;;4953378;29;20860;-78
2022/08/07 09:07:53;;;;;;;4.23;0.90;;;28.90;57.70;;;;;;4954400;29;20409;-78
2022/08/07 09:10:40;;;;;;;3.00;1.43;;;29.00;59.50;;;;;;4954374;29;20409;-78
2022/08/07 09:13:18;;;;;;;1.87;0.80;;;29.20;56.90;;;;;;4954788;29;20410;-78
2022/08/07 09:15:53;;;;;;;3.50;0.80;;;29.20;57.40;;;;;;4954467;28;20795;-78
2022/08/07 09:18:55;;;;;;;1.10;0.80;;;28.90;61.70;;;;;;4953848;28;20660;-78
2022/08/07 09:21:29;;;;;;;3.17;1.00;;;29.70;58.10;;;;;;4954332;28;20869;-78
2022/08/07 09:24:20;;;;;;;1.13;0.80;;;29.60;57.40;;;;;;4954779;29;20425;-79
2022/08/07 09:27:21;;;;;;;0.90;0.60;;;30.40;56.10;;;;;;4957693;28;20440;-79
2022/08/07 09:29:47;;;;;;;1.70;0.80;;;27.20;57.80;;;;;;4956360;28;20444;-79
2022/08/07 09:32:41;;;;;;;1.87;1.17;;;25.90;60.20;;;;;;4956853;29;20950;-79
2022/08/07 09:35:20;;;;;;;1.30;0.70;;;25.30;61.10;;;;;;4955330;29;20194;-79
2022/08/07 09:37:58;;;;;;;2.90;0.70;;;25.90;62.40;;;;;;4957407;29;20429;-78
2022/08/07 09:40:44;;;;;;;1.40;0.70;;;27.50;61.00;;;;;;4963350;28;20468;-79
2022/08/07 09:43:24;;;;;;;4.03;0.80;;;28.80;58.30;;;;;;4977849;28;20409;-79
2022/08/07 09:46:20;;;;;;;1.40;0.60;;;29.00;57.00;;;;;;4977230;28;20424;-82
2022/08/07 09:49:00;;;;;;;2.10;0.70;;;29.10;56.70;;;;;;4978573;28;20417;-79
2022/08/07 09:51:59;;;;;;;1.30;0.70;;;29.30;55.80;;;;;;4976133;28;20437;-78
2022/08/07 09:54:42;;;;;;;2.10;0.90;;;27.30;57.10;;;;;;4977169;28;20413;-77
2022/08/07 09:57:23;;;;;;;1.00;0.70;;;28.40;59.40;;;;;;4977248;28;20416;-78
2022/08/07 10:00:10;;;;;;;1.47;0.73;;;27.20;58.90;;;;;;4974892;28;20487;-78
2022/08/07 10:02:42;;;;;;;2.90;0.80;;;27.10;59.40;;;;;;4974878;28;20847;-79
2022/08/07 10:05:19;;;;;;;2.07;0.80;;;27.60;59.60;;;;;;4975713;28;20448;-78
2022/08/07 10:08:09;;;;;;;2.73;0.83;;;27.10;60.20;;;;;;4975804;28;20913;-78
2022/08/07 10:11:07;;;;;;;2.10;0.70;;;26.10;61.80;;;;;;4960911;28;20434;-78
2022/08/07 10:14:06;;;;;;;1.43;0.70;;;26.00;62.10;;;;;;4925755;29;20410;-79
2022/08/07 10:16:50;;;;;;;3.70;0.80;;;25.80;65.70;;;;;;4956881;28;20418;-78
2022/08/07 10:19:44;;;;;;;1.10;0.80;;;27.50;61.20;;;;;;4956997;28;20763;-79
2022/08/07 10:25:08;;;;;;;0.90;0.60;;;27.30;61.60;;;;;;5827969;23;20489;-76
2022/08/07 10:28:11;;;;;;;1.97;0.70;;;26.60;58.90;;;;;;4956469;28;20761;-76
2022/08/07 10:31:13;;;;;;;0.90;0.60;;;25.80;60.90;;;;;;4927379;28;20520;-76
2022/08/07 10:34:04;;;;;;;3.83;0.60;;;25.70;61.20;;;;;;4957470;28;20445;-76
2022/08/07 10:36:50;;;;;;;1.43;0.77;;;26.60;59.50;;;;;;4956229;29;20422;-80
2022/08/07 10:39:53;;;;;;;0.90;0.60;;;27.70;58.60;;;;;;4955195;29;20512;-78
2022/08/07 10:42:27;;;;;;;3.17;0.63;;;27.40;58.30;;;;;;4938035;29;20466;-76
2022/08/07 10:45:16;;;;;;;5.00;0.90;;;25.40;60.50;;;;;;4936940;29;20431;-80
2022/08/07 10:47:57;;;;;;;2.13;0.70;;;25.10;61.80;;;;;;4938104;29;20486;-77
2022/08/07 10:50:41;;;;;;;1.77;0.90;;;26.10;61.70;;;;;;4938048;29;20431;-80
2022/08/07 10:53:28;;;;;;;1.40;0.60;;;25.50;60.30;;;;;;4938076;29;20482;-76
2022/08/07 10:56:26;;;;;;;1.13;0.70;;;26.00;61.70;;;;;;4937939;29;20805;-77
2022/08/07 10:59:05;;;;;;;2.13;0.77;;;27.00;58.50;;;;;;4937590;29;20414;-76
2022/08/07 11:01:40;;;;;;;1.10;0.70;;;26.50;59.30;;;;;;4938129;29;21038;-76
2022/08/07 11:04:10;;;;;;;1.30;0.63;;;26.20;60.20;;;;;;4938483;29;20405;-76
2022/08/07 11:07:05;;;;;;;1.37;0.70;;;26.50;59.70;;;;;;4938648;29;20414;-77
2022/08/07 11:09:38;;;;;;;8.77;0.70;;;26.30;59.20;;;;;;4940146;28;20429;-76
2022/08/07 11:12:12;;;;;;;1.00;0.70;;;25.10;61.80;;;;;;4975749;28;20488;-77
2022/08/07 11:14:48;;;;;;;2.17;0.90;;;25.40;62.70;;;;;;4976087;28;20413;-77
2022/08/07 11:17:29;;;;;;;1.23;0.60;;;25.60;61.40;;;;;;4975989;28;20822;-77
2022/08/07 11:20:07;;;;;;;1.40;0.70;;;25.60;60.50;;;;;;4975411;28;20438;-76
2022/08/07 11:22:54;;;;;;;1.63;0.60;;;25.10;61.00;;;;;;4974587;28;20469;-76
2022/08/07 11:25:38;;;;;;;1.83;1.07;;;24.00;62.10;;;;;;4976002;28;20923;-76
2022/08/07 11:28:18;;;;;;;2.33;0.70;;;24.00;62.80;;;;;;4975344;28;20457;-79
2022/08/07 11:31:03;;;;;;;4.10;0.80;;;24.20;63.60;;;;;;4976020;28;20434;-76
2022/08/07 11:33:59;;;;;;;2.93;0.70;;;25.10;64.90;;;;;;4975752;28;20501;-79
2022/08/07 11:36:48;;;;;;;2.93;0.93;;;24.80;63.20;;;;;;4975977;28;20490;-76
2022/08/07 11:39:47;;;;;;;4.30;0.90;;;25.40;62.50;;;;;;4973767;28;20422;-82
2022/08/07 11:42:30;;;;;;;2.63;0.83;;;25.80;62.20;;;;;;4936998;29;20954;-77
2022/08/07 11:45:11;;;;;;;1.10;0.80;;;26.00;61.60;;;;;;4937139;29;20399;-77
2022/08/07 11:47:55;;;;;;;1.27;0.97;;;26.30;59.50;;;;;;4936967;29;20421;-77
2022/08/07 11:50:26;;;;;;;4.23;0.67;;;26.40;60.50;;;;;;4936774;29;20411;-81
2022/08/07 11:53:19;;;;;;;1.30;0.60;;;26.70;62.60;;;;;;4935702;29;20415;-77
2022/08/07 11:56:17;;;;;;;3.33;0.67;;;26.50;60.20;;;;;;4936859;29;20454;-80
2022/08/07 11:59:04;;;;;;;2.50;0.80;;;25.70;59.30;;;;;;4936426;29;20418;-76
2022/08/07 12:01:46;;;;;;;0.90;0.60;;;25.10;61.40;;;;;;4936800;29;20463;-76
2022/08/07 12:04:36;;;;;;;2.13;0.70;;;24.60;62.30;;;;;;4936673;29;20429;-76
2022/08/07 12:07:25;;;;;;;11.30;0.80;;;25.20;61.70;;;;;;4936721;29;20485;-77
2022/08/07 12:10:21;;;;;;;2.37;0.70;;;25.40;61.30;;;;;;4955547;28;20830;-76
2022/08/07 12:12:55;;;;;;;1.50;0.70;;;25.60;62.10;;;;;;4975016;28;20875;-76
2022/08/07 12:15:29;;;;;;;6.63;0.87;;;26.80;59.00;;;;;;4975104;28;20390;-77
2022/08/07 12:18:14;;;;;;;2.70;0.90;;;26.90;62.20;;;;;;4974450;28;20397;-76
2022/08/07 12:20:58;;;;;;;1.93;0.60;;;27.90;58.10;;;;;;4974732;28;20492;-81
2022/08/07 12:23:39;;;;;;;1.47;0.90;;;27.70;59.00;;;;;;4974897;28;20420;-80
2022/08/07 12:26:32;;;;;;;1.40;0.80;;;27.20;58.50;;;;;;4974558;28;20424;-77
2022/08/07 12:29:14;;;;;;;1.73;0.80;;;27.50;59.10;;;;;;4964964;28;20460;-77
2022/08/07 12:31:50;;;;;;;1.83;0.80;;;27.60;58.60;;;;;;4974650;28;20444;-76
2022/08/07 12:34:18;;;;;;;1.50;0.80;;;25.70;60.10;;;;;;4974508;28;20409;-76
2022/08/07 12:36:44;;;;;;;1.77;0.90;;;24.70;61.60;;;;;;4974584;28;20409;-77
2022/08/07 12:39:11;;;;;;;1.53;0.70;;;24.00;63.50;;;;;;4973980;28;20419;-76
2022/08/07 12:41:38;;;;;;;1.57;0.70;;;23.80;63.10;;;;;;4958712;28;20790;-77
2022/08/07 12:44:07;;;;;;;1.43;0.80;;;23.50;63.30;;;;;;4953954;28;20414;-77
2022/08/07 12:46:51;;;;;;;1.73;0.73;;;23.40;64.20;;;;;;4955032;28;20450;-77
2022/08/07 12:49:47;;;;;;;1.40;0.80;;;23.60;65.40;;;;;;4953997;28;20454;-77
2022/08/07 12:52:15;;;;;;;1.10;0.60;;;24.10;64.80;;;;;;4955018;28;20468;-77
2022/08/07 12:54:50;;;;;;;1.10;0.77;;;23.90;63.30;;;;;;4954893;28;20411;-77
2022/08/07 12:57:18;;;;;;;3.63;0.80;;;24.40;64.10;;;;;;4954922;28;20402;-79
2022/08/07 12:59:46;;;;;;;5.27;0.80;;;25.40;61.60;;;;;;4954340;28;20422;-77
2022/08/07 13:02:42;;;;;;;1.57;0.70;;;25.60;61.60;;;;;;4953347;29;20976;-77
2022/08/07 13:05:39;;;;;;;1.83;0.80;;;25.70;60.90;;;;;;4953432;29;20406;-76
2022/08/07 13:08:37;;;;;;;1.10;0.70;;;25.30;61.20;;;;;;4954182;29;20411;-76
2022/08/07 13:11:45;;;;;;;1.43;0.80;;;24.50;61.50;;;;;;4935501;29;20431;-77
2022/08/07 13:14:27;;;;;;;2.80;0.87;;;24.20;65.30;;;;;;4935554;29;20404;-77
2022/08/07 13:17:14;;;;;;;1.83;0.87;;;24.60;62.40;;;;;;4935460;29;20396;-76
2022/08/07 13:20:02;;;;;;;1.40;0.90;;;25.70;65.20;;;;;;4935028;29;20879;-76
2022/08/07 13:22:40;;;;;;;1.00;0.70;;;25.50;61.20;;;;;;4935254;29;20550;-76
2022/08/07 13:25:19;;;;;;;1.47;0.80;;;25.70;60.10;;;;;;4935177;29;20533;-80
2022/08/07 13:27:51;;;;;;;3.00;0.80;;;26.40;62.80;;;;;;4935207;29;20387;-87
2022/08/07 13:30:18;;;;;;;4.70;0.80;;;26.60;59.20;;;;;;4935158;29;20411;-77
2022/08/07 13:32:55;;;;;;;1.03;0.70;;;26.20;59.90;;;;;;4935267;29;20999;-76
2022/08/07 13:35:23;;;;;;;1.17;0.67;;;25.50;59.90;;;;;;4935164;29;20463;-76
2022/08/07 13:37:57;;;;;;;8.77;1.00;;;25.10;60.00;;;;;;4934881;29;20407;-79
2022/08/07 13:40:30;;;;;;;1.00;0.73;;;25.30;61.00;;;;;;4946064;28;20468;-78
2022/08/07 13:43:00;;;;;;;1.63;0.80;;;25.30;60.10;;;;;;4972261;28;20436;-76
2022/08/07 13:45:28;;;;;;;3.07;0.87;;;25.40;61.20;;;;;;4973449;28;20396;-76
2022/08/07 13:47:56;;;;;;;1.27;0.70;;;25.70;61.40;;;;;;4972845;28;20409;-77
2022/08/07 13:50:24;;;;;;;1.67;0.80;;;25.90;60.60;;;;;;4972045;28;20410;-76
2022/08/07 13:52:51;;;;;;;2.23;0.80;;;26.10;60.60;;;;;;4973378;28;20960;-77
2022/08/07 13:55:19;;;;;;;1.63;0.90;;;26.40;60.60;;;;;;4973178;28;20425;-76
2022/08/07 13:57:50;;;;;;;2.73;0.87;;;25.90;61.10;;;;;;4971918;28;20417;-76
2022/08/07 14:00:17;;;;;;;3.00;0.80;;;26.40;61.90;;;;;;4972883;28;20432;-77
2022/08/07 14:02:45;;;;;;;0.90;0.70;;;27.00;58.40;;;;;;4971482;28;20842;-77
2022/08/07 14:05:20;;;;;;;3.13;0.93;;;27.60;60.10;;;;;;4973101;28;20428;-77
2022/08/07 14:07:48;;;;;;;2.17;0.80;;;28.10;59.50;;;;;;4973150;28;20393;-77
2022/08/07 14:10:16;;;;;;;3.33;0.90;;;28.60;59.50;;;;;;4959632;28;20425;-79
2022/08/07 14:12:54;;;;;;;2.50;0.70;;;28.80;56.30;;;;;;4953962;28;20938;-81
2022/08/07 14:15:43;;;;;;;3.10;0.80;;;28.60;55.70;;;;;;4953857;28;20398;-80
2022/08/07 14:18:36;;;;;;;1.00;0.70;;;26.90;57.60;;;;;;4953401;28;20417;-76
2022/08/07 14:21:13;;;;;;;6.40;1.00;;;26.00;58.30;;;;;;4953682;28;20458;-80
2022/08/07 14:23:46;;;;;;;5.33;1.00;;;25.60;59.00;;;;;;4953906;28;20832;-79
2022/08/07 14:26:16;;;;;;;2.80;0.93;;;26.00;58.70;;;;;;4953623;28;20430;-76
2022/08/07 14:28:44;;;;;;;3.37;0.80;;;26.50;59.20;;;;;;4953813;28;20402;-76
2022/08/07 14:31:12;;;;;;;5.07;0.80;;;26.90;58.90;;;;;;4953533;28;20437;-76
2022/08/07 14:33:38;;;;;;;3.63;0.90;;;26.60;57.90;;;;;;4952253;29;20454;-76
2022/08/07 14:36:06;;;;;;;0.90;0.60;;;26.20;58.80;;;;;;4953578;28;20421;-77
2022/08/07 14:38:32;;;;;;;1.40;0.80;;;25.90;58.60;;;;;;4953075;28;20406;-76
2022/08/07 14:41:06;;;;;;;1.27;0.70;;;26.70;59.60;;;;;;4963235;28;20796;-76
2022/08/07 14:43:39;;;;;;;1.00;0.60;;;26.70;58.80;;;;;;4972807;28;20482;-77
2022/08/07 14:46:07;;;;;;;1.70;0.93;;;26.40;59.40;;;;;;4971617;28;20463;-76
2022/08/07 14:48:35;;;;;;;16.53;1.00;;;26.20;58.30;;;;;;4972288;28;20425;-76
2022/08/07 14:51:20;;;;;;;1.40;0.70;;;26.20;60.00;;;;;;4971565;28;20468;-76
2022/08/07 14:53:48;;;;;;;1.40;0.80;;;26.40;60.70;;;;;;4972914;28;20877;-79
2022/08/07 14:56:16;;;;;;;1.20;0.80;;;27.00;59.10;;;;;;4972692;28;20932;-77
2022/08/07 14:58:49;;;;;;;1.40;0.80;;;27.10;57.60;;;;;;4972238;28;20409;-77
2022/08/07 15:01:16;;;;;;;1.40;0.70;;;26.70;57.20;;;;;;4972498;28;20934;-76
2022/08/07 15:03:43;;;;;;;6.83;1.00;;;27.10;58.60;;;;;;4972604;28;20410;-77
2022/08/07 15:06:11;;;;;;;1.60;0.80;;;26.40;57.60;;;;;;4971399;28;20420;-76
2022/08/07 15:08:42;;;;;;;1.27;0.80;;;26.00;58.50;;;;;;4971623;28;20409;-77
2022/08/07 15:11:10;;;;;;;1.60;0.80;;;25.50;59.10;;;;;;4952065;28;20454;-76
2022/08/07 15:13:48;;;;;;;1.80;0.90;;;25.90;58.20;;;;;;4955830;28;20410;-76
2022/08/07 15:16:15;;;;;;;7.53;0.80;;;25.40;58.80;;;;;;4956752;29;20402;-81
2022/08/07 15:18:46;;;;;;;3.03;0.70;;;25.40;59.50;;;;;;4954889;28;20422;-77
2022/08/07 15:21:19;;;;;;;1.00;0.70;;;25.20;59.90;;;;;;4956597;28;20461;-76
2022/08/07 15:23:48;;;;;;;3.53;0.80;;;25.20;59.20;;;;;;4956690;28;20407;-77
2022/08/07 15:26:15;;;;;;;1.23;0.90;;;25.10;59.30;;;;;;4956466;28;20582;-77
2022/08/07 15:28:42;;;;;;;2.40;1.00;;;25.00;62.00;;;;;;4956018;28;20418;-76
2022/08/07 15:31:13;;;;;;;2.23;0.80;;;25.50;62.00;;;;;;4956504;28;20836;-76
2022/08/07 15:33:40;;;;;;;1.53;0.80;;;25.90;59.40;;;;;;4956607;28;20403;-76
2022/08/07 15:36:06;;;;;;;2.60;0.80;;;26.10;59.70;;;;;;4956872;28;20807;-76
2022/08/07 15:38:34;;;;;;;1.27;0.70;;;26.20;57.70;;;;;;4954783;29;20831;-77
2022/08/07 15:41:10;;;;;;;1.10;0.70;;;25.90;58.60;;;;;;4966635;28;20980;-76
2022/08/07 15:43:40;;;;;;;2.50;1.00;;;25.20;59.10;;;;;;4975581;28;20412;-76
2022/08/07 15:46:18;;;;;;;1.63;0.83;;;25.60;60.10;;;;;;4975554;28;20955;-79
2022/08/07 15:48:44;;;;;;;3.03;0.80;;;26.30;60.60;;;;;;4975023;28;20409;-80
2022/08/07 15:51:12;;;;;;;2.23;0.83;;;26.80;60.20;;;;;;4975422;28;20937;-77
2022/08/07 15:53:40;;;;;;;1.40;0.90;;;26.10;58.30;;;;;;4975501;28;20413;-80
2022/08/07 15:56:12;;;;;;;1.20;0.80;;;26.10;60.00;;;;;;4975259;28;20412;-76
2022/08/07 15:58:43;;;;;;;2.37;1.10;;;26.50;59.50;;;;;;4974863;28;20773;-80
2022/08/07 16:01:14;;;;;;;2.83;0.87;;;26.20;59.00;;;;;;4975170;28;20453;-77
2022/08/07 16:03:44;;;;;;;2.90;1.00;;;25.80;59.00;;;;;;4975251;28;20394;-78
2022/08/07 16:06:11;;;;;;;1.20;0.80;;;25.60;59.40;;;;;;4974013;28;20492;-76
2022/08/07 16:08:41;;;;;;;1.20;0.70;;;25.30;60.90;;;;;;4972866;28;20413;-77
2022/08/07 16:11:31;;;;;;;2.90;1.03;;;25.50;60.50;;;;;;4954363;29;20445;-77
2022/08/07 16:14:11;;;;;;;1.77;0.80;;;25.30;59.70;;;;;;4956358;28;20406;-77
2022/08/07 16:17:06;;;;;;;0.90;0.60;;;24.90;59.50;;;;;;4956301;28;20769;-77
2022/08/07 16:19:43;;;;;;;1.77;0.70;;;24.80;61.00;;;;;;4958212;28;20418;-78
2022/08/07 16:22:18;;;;;;;1.30;0.70;;;24.70;61.10;;;;;;4957526;28;20817;-78
2022/08/07 16:24:55;;;;;;;1.20;0.70;;;24.80;62.00;;;;;;4958146;28;20429;-78
2022/08/07 16:27:31;;;;;;;3.57;0.80;;;24.80;61.90;;;;;;4958004;28;20490;-78
2022/08/07 16:30:14;;;;;;;2.80;0.80;;;24.60;62.00;;;;;;4957040;28;20406;-78
2022/08/07 16:32:44;;;;;;;6.43;0.70;;;24.60;62.60;;;;;;4957669;28;20418;-78
2022/08/07 16:35:21;;;;;;;3.33;0.80;;;24.40;62.60;;;;;;4957144;29;20962;-78
2022/08/07 16:38:23;;;;;;;0.90;0.80;;;24.40;63.20;;;;;;4955963;28;20422;-78
2022/08/07 16:41:13;;;;;;;1.37;0.70;;;24.30;61.40;;;;;;4913393;28;20499;-78
2022/08/07 16:43:45;;;;;;;2.13;0.80;;;24.10;62.10;;;;;;4976327;28;20414;-78
2022/08/07 16:46:43;;;;;;;8.10;0.90;;;23.70;62.60;;;;;;4976186;28;20417;-78
2022/08/07 16:49:35;;;;;;;4.23;1.00;;;23.60;62.60;;;;;;4976212;28;20485;-78
2022/08/07 16:52:13;;;;;;;3.43;0.90;;;23.70;63.40;;;;;;4977073;28;20472;-78
2022/08/07 16:55:09;;;;;;;3.43;0.80;;;23.70;63.70;;;;;;4978440;28;20481;-77
2022/08/07 16:57:56;;;;;;;1.23;0.90;;;23.60;64.10;;;;;;4977915;28;20505;-78
2022/08/07 17:00:32;;;;;;;2.80;0.80;;;23.50;63.00;;;;;;4977879;28;20417;-77
2022/08/07 17:03:10;;;;;;;5.77;1.00;;;23.40;62.70;;;;;;4978319;28;20512;-78
2022/08/07 17:06:12;;;;;;;1.37;0.73;;;23.50;63.00;;;;;;4977147;28;20442;-78
2022/08/07 17:08:52;;;;;;;1.37;0.73;;;23.50;62.50;;;;;;4946696;28;20432;-78
2022/08/07 17:11:35;;;;;;;1.90;1.00;;;23.40;63.30;;;;;;4957499;28;20814;-77
2022/08/07 17:14:11;;;;;;;1.10;0.70;;;23.30;63.10;;;;;;4962557;28;20410;-77
2022/08/07 17:16:58;;;;;;;2.50;0.90;;;23.30;63.60;;;;;;4961840;29;20424;-77
2022/08/07 17:19:38;;;;;;;1.67;0.70;;;23.30;63.80;;;;;;4956470;28;20415;-78
2022/08/07 17:22:36;;;;;;;1.10;0.70;;;22.90;64.00;;;;;;4955205;29;20473;-79
2022/08/07 17:25:18;;;;;;;1.30;0.90;;;22.90;64.60;;;;;;4944540;29;20441;-79
2022/08/07 17:27:59;;;;;;;3.63;0.90;;;22.90;64.40;;;;;;4957770;28;20457;-79
2022/08/07 17:30:45;;;;;;;5.07;0.90;;;22.80;65.00;;;;;;4956606;28;20422;-79
2022/08/07 17:33:23;;;;;;;3.50;0.73;;;22.80;64.80;;;;;;4958391;28;20441;-79
2022/08/07 17:36:10;;;;;;;2.40;0.70;;;22.60;65.10;;;;;;4957821;28;20928;-79
2022/08/07 17:39:04;;;;;;;1.40;0.97;;;22.60;64.80;;;;;;4957249;28;20423;-78
2022/08/07 17:41:52;;;;;;;2.03;0.70;;;22.40;64.80;;;;;;4972039;28;20462;-79